Wilmette, IL

2:45 PM CDT on May 25, 2015 (GMT -0500)
West Wilmette | | Change Station
CLOSE
Current Station
Personal Weather Station
Location: Wilmette, IL
Elevation: 633 ft
Nearby Weather Stations

Elev 633 ft 42.08 °N, 87.74 °W | Updated 9 minutes ago

Mostly Cloudy
Mostly Cloudy
79.3 °F
Feels Like 81 °F
N
5.3
Wind Variable Wind from SW

Today
High -- | Low -- °F
--% Chance of Precip.
Yesterday
High -- | Low -- °F
Precip. -- in
5:21 AM 8:14 PM
Waxing Crescent, 51% visible
Pressure 29.88 in
Visibility 10.0 miles
Clouds Few 3700 ft
Few 4600 ft
Scattered Clouds 6000 ft
Heat Index 81 °F
Dew Point 63 °F
Humidity 57%
Rainfall 0.09 in
Snow Depth Not available.
UV 9 out of 12
Pollen 6.70 out of 12
Air Quality Not available.
Flu Activity Sporadic
METAR KPWK 251852Z 24015G23KT 10SM FEW037 FEW046 SCT060 24/16 A2989 RMK AO2 PK WND 24026/1824 SLP118 T02390161

More Conditions Fewer Conditions

Pressure 29.88 in
Visibility 10.0 miles
Clouds Few 3700 ft
Few 4600 ft
Scattered Clouds 6000 ft
Heat Index 81 °F
Dew Point 63 °F
Humidity 57%
Rainfall 0.09 in
Snow Depth Not available.
UV 9 out of 12
Pollen 6.70 out of 12
Air Quality Not available.
Flu Activity Sporadic
METAR KPWK 251852Z 24015G23KT 10SM FEW037 FEW046 SCT060 24/16 A2989 RMK AO2 PK WND 24026/1824 SLP118 T02390161

More Conditions Fewer Conditions

10-Day Weather Forecast

Almanac

Astronomy

May. 25, 2015 Rise Set
Actual Time
Civil Twilight
Nautical Twilight
Astronomical Twilight
Moon
Length of Visible Light
Length of Day
Tomorrow will be .
, % of the Moon is Illuminated

Today's Extremes

State Highs State Lows

Community

WunderPhotos

Upload Photos

1,824,102 photos uploaded!

WunderBlogs® & News

Nearby

Air Quality

  Air Quality AQ Index Pollutant
Not available.

Snow Depth

Station Depth Elevation

Earthquake Activity

City Distance Mag. Time & Date
Minimum magnitude displayed is 2.5.

Coastal Water Temperatures

Place Temperature

Stations

Nearby Weather Stations

Station Location Temp. Windchill Dew Point Humidity Wind Precip. Elev Updated Type